Time;durP1;ratioP1;P1;durP2;ratioP2;P2;SDS_P1;SDS_P2;PMS_P1;PMS_P2;Temp;Humidity;BMP_temperature;BMP_pressure;BME280_temperature;BME280_humidity;BME280_pressure;Samples;Min_cycle;Max_cycle;Signal;HPM_P1;HPM_P2
2022/09/18 00:02:17;;;;;;;;;4.00;3.00;;;;;15.12;46.82;101677.25;5014929;28;45450;-68
2022/09/18 00:04:42;;;;;;;;;4.33;4.33;;;;;15.15;46.69;101679.63;5016459;28;45452;-69
2022/09/18 00:07:07;;;;;;;;;5.00;5.00;;;;;15.15;46.73;101682.31;5031804;28;45433;-69
2022/09/18 00:09:33;;;;;;;;;3.67;3.67;;;;;15.11;46.89;101688.94;5016453;28;45353;-69
2022/09/18 00:11:59;;;;;;;;;2.67;2.67;;;;;15.08;46.77;101676.72;5015451;28;65115;-70
2022/09/18 00:14:25;;;;;;;;;6.00;6.00;;;;;15.08;46.78;101686.59;5016302;28;45324;-68
2022/09/18 00:16:50;;;;;;;;;4.67;3.00;;;;;14.91;47.04;101648.06;5027588;28;45464;-68
2022/09/18 00:19:16;;;;;;;;;2.67;2.67;;;;;15.06;47.20;101676.03;5019779;28;45716;-68
2022/09/18 00:21:45;;;;;;;;;3.00;3.00;;;;;15.04;47.31;101671.81;5016413;28;45190;-69
2022/09/18 00:24:11;;;;;;;;;3.33;3.00;;;;;15.00;47.38;101673.91;5016048;28;45368;-68
2022/09/18 00:26:37;;;;;;;;;6.33;5.00;;;;;14.97;47.38;101673.38;5016370;28;45567;-68
2022/09/18 00:29:04;;;;;;;;;7.67;3.67;;;;;14.95;47.82;101667.34;5015719;28;45571;-69
2022/09/18 00:31:34;;;;;;;;;3.00;3.00;;;;;14.90;47.51;101665.13;5016249;28;45432;-70
2022/09/18 00:34:04;;;;;;;;;4.00;4.00;;;;;14.40;47.82;101582.50;5031269;28;45308;-68
2022/09/18 00:36:30;;;;;;;;;4.67;4.67;;;;;14.89;47.51;101658.09;5021503;28;45207;-67
2022/09/18 00:38:58;;;;;;;;;3.00;3.00;;;;;14.82;47.80;101649.81;5023032;28;46455;-69
2022/09/18 00:41:29;;;;;;;;;4.67;4.67;;;;;14.33;47.74;101565.38;5019058;28;45380;-68
2022/09/18 00:44:29;;;;;;;;;5.67;4.33;;;;;14.88;47.86;101659.06;5017795;28;45380;-69
2022/09/18 00:47:03;;;;;;;;;5.00;5.00;;;;;14.86;47.68;101663.75;5019270;28;45396;-68
2022/09/18 00:49:29;;;;;;;;;5.67;5.67;;;;;14.67;48.03;101632.56;5019135;28;46915;-68
2022/09/18 00:51:57;;;;;;;;;6.67;5.00;;;;;14.83;48.04;101667.56;5018994;28;45340;-68
2022/09/18 00:54:38;;;;;;;;;6.67;3.33;;;;;14.85;48.19;101678.97;5018981;28;45431;-69
2022/09/18 00:57:07;;;;;;;;;5.00;5.00;;;;;14.77;47.95;101661.94;5026284;28;45727;-70
2022/09/18 00:59:35;;;;;;;;;4.67;2.67;;;;;14.75;48.15;101658.56;5032703;28;47205;-69
2022/09/18 01:02:02;;;;;;;;;3.67;3.67;;;;;14.67;48.14;101645.94;5019154;28;45282;-68
2022/09/18 01:04:29;;;;;;;;;4.00;4.00;;;;;14.66;48.10;101654.97;5018994;28;45281;-69
2022/09/18 01:07:28;;;;;;;;;4.00;4.00;;;;;14.84;48.08;101681.78;5018775;28;45429;-69
2022/09/18 01:10:22;;;;;;;;;6.33;5.00;;;;;14.83;48.43;101680.09;5018783;28;46627;-68
2022/09/18 01:13:14;;;;;;;;;3.00;3.00;;;;;14.79;48.01;101674.19;5018476;28;45333;-69
2022/09/18 01:16:05;;;;;;;;;5.00;5.00;;;;;14.80;48.25;101675.88;5021304;28;45413;-68
2022/09/18 01:18:36;;;;;;;;;5.33;5.33;;;;;14.76;48.13;101682.50;5038593;28;45306;-67
2022/09/18 01:21:16;;;;;;;;;5.00;5.00;;;;;14.75;48.72;101675.47;5027514;28;46660;-70
2022/09/18 01:24:14;;;;;;;;;4.33;4.33;;;;;14.60;48.53;101655.53;5018509;28;45202;-68
2022/09/18 01:26:55;;;;;;;;;2.33;2.33;;;;;14.67;48.26;101672.72;5018841;28;45535;-69
2022/09/18 01:30:01;;;;;;;;;3.33;3.33;;;;;14.52;48.66;101652.78;5034130;28;45503;-69
2022/09/18 01:32:32;;;;;;;;;4.33;4.33;;;;;14.57;49.32;101666.53;5018417;28;46645;-68
2022/09/18 01:35:06;;;;;;;;;5.00;5.00;;;;;14.60;48.95;101666.25;5018322;28;45274;-69
2022/09/18 01:37:34;;;;;;;;;5.33;5.33;;;;;14.48;48.92;101644.19;5031961;28;45361;-69
2022/09/18 01:40:06;;;;;;;;;4.00;4.00;;;;;14.60;48.69;101666.25;5038297;28;45252;-68
2022/09/18 01:42:34;;;;;;;;;7.33;6.33;;;;;14.58;48.92;101671.75;5029941;28;46276;-69
2022/09/18 01:45:06;;;;;;;;;7.33;5.00;;;;;14.56;49.08;101670.22;5016751;28;45389;-68
2022/09/18 01:47:39;;;;;;;;;4.00;4.00;;;;;14.54;49.20;101669.50;5019221;28;45337;-69
2022/09/18 01:50:06;;;;;;;;;3.67;3.67;;;;;14.48;49.01;101660.25;5018174;28;45336;-69
2022/09/18 01:52:38;;;;;;;;;3.33;2.33;;;;;14.36;49.34;101633.78;5017948;28;46871;-69
2022/09/18 01:55:07;;;;;;;;;6.33;3.67;;;;;14.40;49.33;101656.56;5016505;28;45202;-69
2022/09/18 01:57:45;;;;;;;;;5.33;4.33;;;;;14.46;49.21;101661.41;5017854;28;45512;-70
2022/09/18 02:00:13;;;;;;;;;4.00;2.67;;;;;14.35;49.29;101646.31;5018019;28;45610;-68
2022/09/18 02:03:02;;;;;;;;;3.00;2.00;;;;;14.32;49.18;101642.09;5017494;28;46558;-68
2022/09/18 02:05:34;;;;;;;;;4.00;4.00;;;;;14.26;49.19;101637.34;5017118;28;45447;-68
2022/09/18 02:08:13;;;;;;;;;3.00;3.00;;;;;14.43;49.23;101658.97;5017891;28;45440;-68
2022/09/18 02:10:50;;;;;;;;;3.00;3.00;;;;;14.45;49.39;101654.34;5018242;28;45293;-68
2022/09/18 02:13:20;;;;;;;;;4.67;2.67;;;;;14.37;48.95;101640.81;5017466;28;46354;-68
2022/09/18 02:15:47;;;;;;;;;4.00;4.00;;;;;14.43;48.68;101649.16;5017783;28;45331;-68
2022/09/18 02:18:19;;;;;;;;;6.00;4.00;;;;;14.42;49.33;101659.97;5012887;28;45305;-68
2022/09/18 02:20:46;;;;;;;;;1.67;1.67;;;;;14.39;49.36;101647.69;5013279;28;45377;-68
2022/09/18 02:23:13;;;;;;;;;2.67;2.67;;;;;14.41;49.57;101660.94;4997433;28;45332;-70
2022/09/18 02:25:51;;;;;;;;;3.33;3.33;;;;;13.87;49.32;101568.94;4997415;28;45226;-67
2022/09/18 02:28:20;;;;;;;;;2.67;2.67;;;;;14.27;49.40;101646.22;5004116;28;45467;-69
2022/09/18 02:30:46;;;;;;;;;2.33;2.33;;;;;14.32;49.51;101655.47;5017717;28;45326;-68
2022/09/18 02:33:26;;;;;;;;;1.67;0.67;;;;;14.18;49.59;101645.25;5017318;28;45647;-68
2022/09/18 02:36:03;;;;;;;;;3.33;3.33;;;;;14.28;49.57;101655.94;5017421;28;45292;-70
2022/09/18 02:38:48;;;;;;;;;2.33;2.00;;;;;13.53;49.81;101536.53;5029979;28;45265;-68
2022/09/18 02:41:33;;;;;;;;;4.33;3.00;;;;;14.27;49.62;101655.09;5036199;28;45502;-68
2022/09/18 02:44:08;;;;;;;;;3.33;3.33;;;;;14.22;50.13;101649.34;5037117;28;46176;-68
2022/09/18 02:47:00;;;;;;;;;3.67;1.67;;;;;14.23;49.59;101659.06;5036607;28;45287;-68
2022/09/18 02:49:29;;;;;;;;;2.33;2.33;;;;;14.22;49.92;101649.34;5033907;28;45374;-68
2022/09/18 02:52:01;;;;;;;;;4.67;3.00;;;;;14.22;49.80;101651.16;5017570;28;45285;-68
2022/09/18 02:54:37;;;;;;;;;2.67;2.67;;;;;14.19;49.78;101644.25;5016762;28;46520;-68
2022/09/18 02:57:13;;;;;;;;;1.33;1.00;;;;;14.17;50.03;101654.25;5016884;28;45440;-69
2022/09/18 02:59:45;;;;;;;;;3.33;3.33;;;;;14.13;49.99;101642.16;5016606;28;45487;-69
2022/09/18 03:02:11;;;;;;;;;3.00;1.67;;;;;13.96;49.94;101618.84;5016974;28;45273;-66
2022/09/18 03:04:36;;;;;;;;;6.33;2.67;;;;;13.68;50.16;101572.50;5015335;28;47789;-70
2022/09/18 03:07:01;;;;;;;;;1.67;1.67;;;;;13.54;50.19;101564.94;5016795;28;45455;-69
2022/09/18 03:09:28;;;;;;;;;4.00;3.33;;;;;13.95;50.24;101625.19;5017035;28;45222;-69
2022/09/18 03:11:54;;;;;;;;;3.00;3.00;;;;;13.85;50.51;101605.66;5017153;28;45472;-68
2022/09/18 03:14:20;;;;;;;;;5.00;5.00;;;;;13.90;50.17;101608.75;5011686;28;47527;-68
2022/09/18 03:16:45;;;;;;;;;2.33;2.00;;;;;14.03;50.27;101633.34;4996980;28;45472;-67
2022/09/18 03:19:13;;;;;;;;;4.00;2.33;;;;;13.92;50.50;101617.47;5010896;28;52238;-69
2022/09/18 03:21:38;;;;;;;;;2.67;2.67;;;;;13.95;50.36;101617.16;5018321;28;45515;-68
2022/09/18 03:24:04;;;;;;;;;3.33;3.33;;;;;14.01;50.33;101629.94;5015800;28;48873;-67
2022/09/18 03:26:29;;;;;;;;;3.00;3.00;;;;;13.99;50.71;101639.94;5016816;28;45593;-69
2022/09/18 03:28:55;;;;;;;;;3.33;2.00;;;;;13.84;50.34;101599.47;5017071;28;45362;-67
2022/09/18 03:31:20;;;;;;;;;3.00;2.33;;;;;13.89;50.82;101613.25;5015624;28;45222;-68
2022/09/18 03:33:45;;;;;;;;;3.67;3.67;;;;;13.88;51.16;101613.41;5016263;28;45253;-68
2022/09/18 03:36:10;;;;;;;;;5.33;3.33;;;;;13.84;51.01;101607.50;5016458;28;45316;-68
2022/09/18 03:38:39;;;;;;;;;4.00;4.00;;;;;13.83;51.32;101615.66;5021987;28;52879;-69
2022/09/18 03:41:06;;;;;;;;;3.67;3.67;;;;;13.77;51.24;101614.38;5035544;28;45367;-69
2022/09/18 03:43:31;;;;;;;;;3.33;2.33;;;;;13.80;51.36;101626.63;5036091;28;46641;-69
2022/09/18 03:45:57;;;;;;;;;5.33;4.33;;;;;13.80;51.17;101610.59;5036329;28;45400;-68
2022/09/18 03:48:22;;;;;;;;;4.00;3.00;;;;;13.87;51.58;101619.72;5036394;28;45556;-68
2022/09/18 03:50:48;;;;;;;;;3.33;2.00;;;;;13.89;51.46;101625.78;5036894;28;45264;-68
2022/09/18 03:53:13;;;;;;;;;2.00;2.00;;;;;13.87;51.14;101622.41;5034817;28;46749;-68
2022/09/18 03:55:39;;;;;;;;;4.67;3.00;;;;;13.87;51.62;101617.06;5025913;28;45364;-69
2022/09/18 03:58:04;;;;;;;;;3.33;3.33;;;;;13.33;51.61;101533.88;5016404;28;45428;-69
2022/09/18 04:00:30;;;;;;;;;3.67;2.67;;;;;13.61;51.88;101582.91;5034286;28;45627;-69
2022/09/18 04:02:55;;;;;;;;;3.00;3.00;;;;;13.72;52.12;101607.78;5034930;28;45557;-67
2022/09/18 04:05:21;;;;;;;;;3.00;3.00;;;;;13.57;51.73;101586.00;5035878;28;45514;-67
2022/09/18 04:07:46;;;;;;;;;3.33;3.33;;;;;13.15;51.89;101513.34;5036111;28;45506;-69
2022/09/18 04:10:11;;;;;;;;;3.00;3.00;;;;;13.67;52.13;101602.88;5034959;28;45502;-68
2022/09/18 04:12:37;;;;;;;;;3.00;3.00;;;;;13.79;51.76;101628.44;5038107;28;46338;-68
2022/09/18 04:15:02;;;;;;;;;2.67;2.67;;;;;13.58;51.92;101580.53;5039462;28;45379;-67
2022/09/18 04:17:28;;;;;;;;;7.33;6.33;;;;;13.72;52.14;101597.09;5020515;28;45418;-67
2022/09/18 04:19:53;;;;;;;;;3.00;3.00;;;;;13.74;52.34;101611.16;5031772;28;45382;-69
2022/09/18 04:22:19;;;;;;;;;3.33;3.33;;;;;13.77;52.08;101619.72;5039361;28;46300;-68
2022/09/18 04:24:45;;;;;;;;;5.00;4.33;;;;;13.10;52.57;101509.28;5039375;28;45202;-66
2022/09/18 04:27:11;;;;;;;;;4.00;4.00;;;;;13.67;52.89;101603.72;5038131;28;45260;-68
2022/09/18 04:29:36;;;;;;;;;4.33;4.33;;;;;13.75;52.67;101618.19;5039131;28;51388;-68
2022/09/18 04:32:02;;;;;;;;;3.67;3.67;;;;;13.75;53.08;101621.72;5037746;28;47813;-67
2022/09/18 04:34:27;;;;;;;;;3.67;3.67;;;;;13.61;52.42;101596.25;5039218;28;45512;-67
2022/09/18 04:36:52;;;;;;;;;3.33;3.33;;;;;13.76;52.74;101617.22;5037377;28;58063;-68
2022/09/18 04:39:18;;;;;;;;;4.00;3.00;;;;;13.57;52.85;101597.53;5021705;28;45249;-67
2022/09/18 04:41:44;;;;;;;;;6.00;5.00;;;;;13.70;53.22;101623.97;5019079;28;46135;-68
2022/09/18 04:44:10;;;;;;;;;3.67;3.67;;;;;13.72;53.41;101626.50;5018829;28;45377;-69
2022/09/18 04:46:35;;;;;;;;;3.00;3.00;;;;;13.49;53.09;101586.72;5017374;28;45204;-67
2022/09/18 04:49:01;;;;;;;;;4.67;3.67;;;;;13.07;53.23;101516.75;5019303;28;45554;-70
2022/09/18 04:51:26;;;;;;;;;4.33;4.33;;;;;13.56;53.41;101603.88;5018676;28;46527;-69
2022/09/18 04:53:51;;;;;;;;;4.00;3.00;;;;;13.67;53.00;101624.25;5018619;28;45132;-68
2022/09/18 04:56:17;;;;;;;;;4.00;4.00;;;;;13.66;53.82;101627.94;5018749;28;45387;-68
2022/09/18 04:58:42;;;;;;;;;2.00;2.00;;;;;13.68;53.18;101631.28;5025484;28;45283;-68
2022/09/18 05:01:08;;;;;;;;;1.00;1.00;;;;;13.55;53.10;101615.53;5017666;28;46748;-68
2022/09/18 05:03:33;;;;;;;;;3.00;3.00;;;;;13.60;53.34;101615.97;5018126;28;45485;-67
2022/09/18 05:05:58;;;;;;;;;3.33;3.33;;;;;13.56;53.04;101611.88;5018626;28;45439;-68
2022/09/18 05:08:24;;;;;;;;;4.33;3.00;;;;;13.66;53.56;101633.28;5019035;28;45247;-67
2022/09/18 05:10:49;;;;;;;;;4.67;4.33;;;;;13.66;52.73;101631.44;5018606;28;45691;-68
2022/09/18 05:13:15;;;;;;;;;4.67;4.00;;;;;13.53;53.28;101612.19;5018444;28;45514;-69
2022/09/18 05:15:41;;;;;;;;;4.67;4.67;;;;;13.54;53.44;101626.38;5018968;28;45289;-67
2022/09/18 05:18:07;;;;;;;;;3.00;3.00;;;;;13.60;53.47;101639.16;5017253;28;45498;-69
2022/09/18 05:20:34;;;;;;;;;3.00;3.00;;;;;13.57;54.30;101634.94;5018344;28;45945;-69
2022/09/18 05:22:59;;;;;;;;;4.33;4.33;;;;;13.41;54.11;101613.28;5021010;28;45423;-69
2022/09/18 05:25:28;;;;;;;;;2.00;2.00;;;;;13.48;54.12;101629.63;5016879;28;46563;-69
2022/09/18 05:27:55;;;;;;;;;7.33;7.33;;;;;13.45;53.75;101633.44;5018830;28;45533;-68
2022/09/18 05:30:21;;;;;;;;;5.33;4.00;;;;;13.47;54.22;101627.94;5017794;28;46242;-68
2022/09/18 05:33:01;;;;;;;;;4.00;4.00;;;;;13.52;53.80;101645.22;5018222;28;45360;-68
2022/09/18 05:35:29;;;;;;;;;5.33;4.00;;;;;13.53;53.75;101641.56;5018275;28;45395;-68
2022/09/18 05:37:55;;;;;;;;;4.00;4.00;;;;;13.51;54.01;101640.03;5018450;28;45308;-67
2022/09/18 05:40:23;;;;;;;;;4.33;3.00;;;;;13.47;54.04;101642.13;5018281;28;46225;-68
2022/09/18 05:42:51;;;;;;;;;4.67;3.67;;;;;13.35;54.09;101621.88;5018356;28;45302;-69
2022/09/18 05:45:17;;;;;;;;;2.00;2.00;;;;;13.43;54.26;101638.06;5016720;28;45282;-68
2022/09/18 05:47:42;;;;;;;;;4.00;4.00;;;;;13.45;54.10;101636.09;5018420;28;45470;-67
2022/09/18 05:50:09;;;;;;;;;3.00;3.00;;;;;13.35;54.40;101624.56;5017555;28;53153;-68
2022/09/18 05:52:35;;;;;;;;;3.33;2.67;;;;;13.54;54.37;101634.41;5017799;28;45233;-67
2022/09/18 05:55:00;;;;;;;;;3.67;3.67;;;;;13.50;54.18;101644.53;5017620;28;45412;-68
2022/09/18 05:57:26;;;;;;;;;3.00;3.00;;;;;13.52;54.34;101631.03;5018313;28;45345;-68
2022/09/18 05:59:51;;;;;;;;;4.00;3.00;;;;;13.48;54.31;101634.97;5017918;28;47575;-70
2022/09/18 06:02:16;;;;;;;;;3.00;3.00;;;;;13.33;54.31;101608.66;5030738;28;52843;-67
2022/09/18 06:04:42;;;;;;;;;4.00;4.00;;;;;13.55;54.32;101636.91;5053009;28;45704;-68
2022/09/18 06:07:07;;;;;;;;;5.67;4.67;;;;;13.46;54.20;101629.78;5023636;28;45574;-67
2022/09/18 06:09:32;;;;;;;;;2.00;2.00;;;;;13.09;54.39;101562.81;5032604;28;48181;-69
2022/09/18 06:11:58;;;;;;;;;2.00;2.00;;;;;13.66;54.10;101644.81;5017996;28;45621;-69
2022/09/18 06:14:23;;;;;;;;;4.00;4.00;;;;;13.10;54.00;101551.16;5018075;28;45381;-69
2022/09/18 06:16:48;;;;;;;;;2.67;2.67;;;;;13.70;53.55;101637.34;5017981;28;45251;-67
2022/09/18 06:19:14;;;;;;;;;4.33;4.00;;;;;13.60;53.71;101618.63;5017868;28;45754;-69
2022/09/18 06:21:40;;;;;;;;;7.00;7.00;;;;;13.80;53.52;101656.03;5035107;28;53150;-68
2022/09/18 06:24:05;;;;;;;;;5.67;4.00;;;;;13.78;53.60;101649.97;5037801;28;45431;-67
2022/09/18 06:26:31;;;;;;;;;7.00;5.00;;;;;13.88;53.51;101670.38;5037005;28;45298;-69
2022/09/18 06:28:56;;;;;;;;;5.67;4.00;;;;;13.94;53.38;101660.94;5023818;28;45562;-69
2022/09/18 06:31:22;;;;;;;;;4.00;2.00;;;;;13.28;53.28;101543.31;5017519;28;45262;-69
2022/09/18 06:33:48;;;;;;;;;5.00;4.00;;;;;13.96;53.39;101654.44;5032038;28;62636;-69
2022/09/18 06:36:15;;;;;;;;;3.33;3.00;;;;;14.09;53.52;101656.81;5017533;28;45486;-69
2022/09/18 06:38:40;;;;;;;;;3.00;3.00;;;;;13.49;52.92;101545.81;5017418;28;45885;-68
2022/09/18 06:41:07;;;;;;;;;2.67;2.67;;;;;14.20;53.06;101656.63;5017287;28;45333;-67
2022/09/18 06:43:33;;;;;;;;;4.67;3.67;;;;;14.28;53.47;101656.78;5017119;28;45499;-68
2022/09/18 06:45:58;;;;;;;;;5.33;4.00;;;;;14.29;52.94;101653.09;5016973;28;45238;-70
2022/09/18 06:48:24;;;;;;;;;3.33;1.67;;;;;14.40;52.80;101653.91;5016629;28;55044;-68
2022/09/18 06:50:54;;;;;;;;;6.67;6.67;;;;;14.62;53.42;101669.63;5015594;28;45512;-69
2022/09/18 06:53:19;;;;;;;;;2.00;2.00;;;;;14.89;51.33;101601.84;5016900;28;45336;-68
2022/09/18 06:55:47;;;;;;;;;4.00;2.67;;;;;15.81;50.02;101647.09;5016038;28;45244;-69
2022/09/18 06:58:16;;;;;;;;;3.00;1.67;;;;;16.50;47.88;101626.56;5018293;28;46389;-69
2022/09/18 07:00:42;;;;;;;;;3.00;2.00;;;;;17.26;46.49;101621.94;5025143;28;45464;-69
2022/09/18 07:03:08;;;;;;;;;2.00;2.00;;;;;18.14;44.89;101637.38;5028480;28;45797;-68
2022/09/18 07:05:33;;;;;;;;;3.00;3.00;;;;;18.60;43.37;101592.63;5015088;28;45640;-69
2022/09/18 07:07:58;;;;;;;;;2.33;1.33;;;;;19.67;41.83;101644.91;5015755;28;64430;-69
2022/09/18 07:10:24;;;;;;;;;4.00;2.00;;;;;20.38;40.64;101637.25;5015533;28;45502;-69
2022/09/18 07:12:57;;;;;;;;;1.67;1.67;;;;;20.67;39.19;101571.59;5014782;28;45684;-69
2022/09/18 07:15:24;;;;;;;;;3.00;2.67;;;;;21.63;38.33;101656.88;5015532;28;45345;-70
2022/09/18 07:17:51;;;;;;;;;2.33;2.33;;;;;21.45;37.15;101532.88;5023425;28;46844;-69
2022/09/18 07:20:17;;;;;;;;;3.00;1.67;;;;;22.65;36.17;101621.97;5016410;28;45397;-71
2022/09/18 07:22:43;;;;;;;;;5.67;4.00;;;;;23.32;35.03;101635.53;5048660;28;45455;-68
2022/09/18 07:25:09;;;;;;;;;3.00;3.00;;;;;23.92;34.01;101630.16;5016609;28;45253;-71
2022/09/18 07:27:35;;;;;;;;;1.00;1.00;;;;;24.48;32.74;101637.81;5016121;28;46520;-69
2022/09/18 07:30:00;;;;;;;;;3.00;2.00;;;;;24.73;32.19;101622.44;5016079;28;45282;-71
2022/09/18 07:32:26;;;;;;;;;2.00;2.00;;;;;25.26;31.28;101634.94;5016069;28;45380;-71
2022/09/18 07:34:52;;;;;;;;;2.00;2.00;;;;;25.45;31.00;101598.59;5016694;28;45459;-70
2022/09/18 07:37:17;;;;;;;;;2.33;2.00;;;;;26.09;30.18;101643.72;5016170;28;45498;-69
2022/09/18 07:39:43;;;;;;;;;4.00;4.00;;;;;25.61;29.86;101519.03;5014450;28;45624;-69
2022/09/18 07:42:12;;;;;;;;;4.00;4.00;;;;;26.68;29.12;101628.63;5016623;28;45499;-71
2022/09/18 07:44:37;;;;;;;;;4.67;3.67;;;;;27.18;28.59;101639.28;5012504;28;45490;-69
2022/09/18 07:47:03;;;;;;;;;3.00;3.00;;;;;27.51;28.42;101644.25;5019323;28;45795;-69
2022/09/18 07:49:28;;;;;;;;;4.00;3.00;;;;;27.89;27.49;101630.19;5017600;28;45362;-71
2022/09/18 07:51:53;;;;;;;;;5.33;4.00;;;;;28.04;27.11;101581.34;5015954;28;45579;-70
2022/09/18 07:54:19;;;;;;;;;2.67;2.67;;;;;28.80;26.11;101631.38;5010416;28;45333;-71
2022/09/18 07:56:44;;;;;;;;;3.67;3.67;;;;;29.14;25.83;101629.59;5019383;28;45620;-70
2022/09/18 07:59:10;;;;;;;;;3.00;3.00;;;;;29.48;25.52;101640.63;5022942;28;45471;-70
2022/09/18 08:01:35;;;;;;;;;2.00;2.00;;;;;29.57;24.42;101611.72;5019736;28;45305;-70
2022/09/18 08:04:02;;;;;;;;;1.67;1.67;;;;;29.92;24.75;101603.22;5021525;28;45330;-71
2022/09/18 08:06:28;;;;;;;;;3.67;3.00;;;;;30.35;24.64;101634.56;5020067;28;45773;-70
2022/09/18 08:08:54;;;;;;;;;2.00;2.00;;;;;30.45;24.29;101646.53;5018463;28;45393;-72
2022/09/18 08:11:20;;;;;;;;;3.00;3.00;;;;;30.24;24.08;101570.53;5018500;28;45423;-69
2022/09/18 08:13:48;;;;;;;;;3.00;2.33;;;;;30.75;23.91;101634.28;5018940;28;45142;-69
2022/09/18 08:16:14;;;;;;;;;7.67;6.33;;;;;30.46;23.37;101563.13;5018341;28;46064;-71
2022/09/18 08:18:40;;;;;;;;;4.00;3.00;;;;;31.05;23.21;101640.13;5016430;28;45492;-72
2022/09/18 08:21:06;;;;;;;;;4.00;2.67;;;;;31.02;23.01;101634.28;5016896;28;45447;-70
2022/09/18 08:23:32;;;;;;;;;2.00;2.00;;;;;31.09;22.99;101643.19;5034678;28;45273;-70
2022/09/18 08:26:02;;;;;;;;;2.67;2.67;;;;;30.77;23.21;101632.09;5018743;28;45770;-70
2022/09/18 08:28:28;;;;;;;;;3.00;3.00;;;;;30.53;23.38;101642.50;5017174;28;45552;-70
2022/09/18 08:30:55;;;;;;;;;2.00;2.00;;;;;29.88;23.72;101597.44;5018959;28;45344;-71
2022/09/18 08:33:20;;;;;;;;;5.00;5.00;;;;;30.10;24.12;101644.13;5019192;28;45551;-71
2022/09/18 08:35:45;;;;;;;;;2.00;2.00;;;;;29.56;24.11;101571.72;5021715;28;46604;-71
2022/09/18 08:38:11;;;;;;;;;4.00;4.00;;;;;29.88;24.03;101649.53;5016901;28;60214;-71
2022/09/18 08:40:58;;;;;;;;;2.33;2.33;;;;;29.99;24.67;101650.50;5019126;28;45230;-72
2022/09/18 08:43:30;;;;;;;;;4.00;2.33;;;;;30.03;24.32;101653.56;5011838;28;45470;-69
2022/09/18 08:46:06;;;;;;;;;3.67;3.67;;;;;29.70;23.96;101578.50;5019039;28;45717;-73
2022/09/18 08:48:42;;;;;;;;;2.67;2.67;;;;;29.71;23.93;101551.94;5012048;28;45345;-73
2022/09/18 08:51:35;;;;;;;;;7.33;5.00;;;;;30.21;23.63;101601.19;5016749;28;46069;-75
2022/09/18 08:54:26;;;;;;;;;2.00;2.00;;;;;30.47;23.04;101649.84;5017183;28;45654;-72
2022/09/18 08:56:54;;;;;;;;;2.33;2.00;;;;;30.31;23.22;101642.50;5018051;28;45542;-73
2022/09/18 08:59:34;;;;;;;;;3.00;2.00;;;;;30.50;23.06;101649.34;5017454;28;45587;-71
2022/09/18 09:02:18;;;;;;;;;2.67;1.33;;;;;30.58;23.42;101635.16;5018574;28;45321;-71
2022/09/18 09:04:44;;;;;;;;;4.00;3.67;;;;;30.76;22.81;101642.25;5012923;28;45567;-70
2022/09/18 09:07:24;;;;;;;;;3.00;2.00;;;;;30.72;22.92;101629.31;5030826;28;45499;-73
2022/09/18 09:10:11;;;;;;;;;2.00;2.00;;;;;30.74;22.71;101655.41;5018356;28;46077;-73
2022/09/18 09:13:15;;;;;;;;;2.33;2.33;;;;;30.72;22.50;101648.53;5017455;28;45309;-72
2022/09/18 09:15:49;;;;;;;;;2.67;1.67;;;;;30.75;21.81;101648.00;4995761;28;47082;-71
2022/09/18 09:18:24;;;;;;;;;1.00;1.00;;;;;31.08;22.01;101645.09;5035021;28;48090;-72
2022/09/18 09:20:52;;;;;;;;;4.00;3.00;;;;;31.74;21.21;101637.50;5012235;28;45359;-73
2022/09/18 09:23:38;;;;;;;;;5.67;4.00;;;;;32.50;20.62;101636.31;5017246;28;45649;-72
2022/09/18 09:26:17;;;;;;;;;4.00;4.00;;;;;33.64;19.31;101631.59;5013858;28;45374;-74
2022/09/18 09:28:45;;;;;;;;;2.00;2.00;;;;;34.49;18.17;101632.59;5017807;28;45556;-71
2022/09/18 09:31:16;;;;;;;;;2.00;1.00;;;;;34.80;17.97;101560.59;5018188;28;45328;-69
2022/09/18 09:33:49;;;;;;;;;3.00;3.00;;;;;35.72;16.80;101594.72;5018106;28;45661;-75
2022/09/18 09:36:20;;;;;;;;;3.00;3.00;;;;;36.11;17.15;101585.47;5006968;28;45479;-76
2022/09/18 09:39:16;;;;;;;;;0.67;0.67;;;;;36.97;16.21;101622.28;5020656;28;45674;-71
2022/09/18 09:42:02;;;;;;;;;3.67;3.00;;;;;37.40;15.99;101628.56;5023451;28;45427;-71
2022/09/18 09:44:53;;;;;;;;;1.67;0.67;;;;;37.67;15.36;101616.72;5017690;28;45376;-71
2022/09/18 09:47:30;;;;;;;;;2.67;1.00;;;;;37.22;14.74;101554.50;5012555;28;45493;-73
2022/09/18 09:50:21;;;;;;;;;4.00;1.00;;;;;37.32;15.07;101623.72;5014756;28;46003;-70
2022/09/18 09:52:47;;;;;;;;;2.00;2.00;;;;;36.23;15.32;101538.78;5017463;28;45360;-74
2022/09/18 09:55:18;;;;;;;;;0.00;0.00;;;;;35.30;15.22;101626.59;5017321;28;45358;-73
2022/09/18 09:58:01;;;;;;;;;3.33;1.33;;;;;34.55;16.14;101633.38;5018048;28;45646;-74
2022/09/18 10:00:33;;;;;;;;;2.00;1.00;;;;;33.74;17.05;101623.34;5017427;28;46423;-74
2022/09/18 10:03:32;;;;;;;;;4.00;4.00;;;;;32.76;17.83;101618.78;5018097;28;46866;-73
2022/09/18 10:06:09;;;;;;;;;1.33;1.00;;;;;32.00;18.55;101623.91;5017123;28;45464;-75
2022/09/18 10:09:01;;;;;;;;;1.33;1.00;;;;;30.95;19.70;101568.59;5021268;28;45258;-76
2022/09/18 10:11:27;;;;;;;;;2.00;2.00;;;;;30.16;20.47;101579.19;5018522;28;46861;-75
2022/09/18 10:14:05;;;;;;;;;1.00;1.00;;;;;29.52;20.94;101617.13;5015716;28;45518;-72
2022/09/18 10:16:35;;;;;;;;;1.00;1.00;;;;;28.59;22.09;101578.13;5017082;28;45401;-75
2022/09/18 10:19:02;;;;;;;;;2.67;2.00;;;;;28.21;22.90;101622.44;5021640;28;45396;-73
2022/09/18 10:21:33;;;;;;;;;1.00;1.00;;;;;27.19;23.69;101616.38;5020453;28;46750;-75
2022/09/18 10:24:17;;;;;;;;;3.00;2.00;;;;;26.33;25.19;101612.00;5015695;28;45403;-74
2022/09/18 10:26:46;;;;;;;;;2.33;2.00;;;;;25.33;26.53;101597.63;5016544;28;45270;-74
2022/09/18 10:29:11;;;;;;;;;3.00;3.00;;;;;24.77;27.35;101563.81;5015457;28;45478;-71
2022/09/18 10:31:48;;;;;;;;;2.00;2.00;;;;;24.49;27.50;101583.22;5010969;28;47759;-73
2022/09/18 10:34:49;;;;;;;;;2.00;2.00;;;;;24.26;27.96;101600.00;5033176;28;45769;-72
2022/09/18 10:37:29;;;;;;;;;2.00;2.00;;;;;23.87;28.14;101606.34;4998557;28;45464;-72
2022/09/18 10:40:00;;;;;;;;;3.67;3.67;;;;;23.62;28.50;101597.16;5016576;28;45340;-77
2022/09/18 10:42:27;;;;;;;;;7.00;7.00;;;;;22.93;29.04;101516.09;5022396;28;46810;-74
2022/09/18 10:44:57;;;;;;;;;3.00;3.00;;;;;23.43;29.82;101606.13;5021806;28;45485;-73
2022/09/18 10:47:26;;;;;;;;;3.00;1.67;;;;;23.26;30.08;101603.78;5032916;28;45543;-74
2022/09/18 10:49:58;;;;;;;;;1.67;1.67;;;;;22.92;30.60;101568.69;5017447;28;45371;-73
2022/09/18 10:52:34;;;;;;;;;3.00;3.00;;;;;22.94;30.91;101597.25;5017305;28;45371;-73
2022/09/18 10:55:09;;;;;;;;;3.00;3.00;;;;;22.96;30.78;101602.47;5017013;28;45478;-73
2022/09/18 10:57:48;;;;;;;;;1.67;1.67;;;;;22.90;30.99;101604.13;5012936;28;45268;-73
2022/09/18 11:00:32;;;;;;;;;3.00;1.67;;;;;22.84;30.90;101606.84;5016263;28;45561;-71
2022/09/18 11:03:19;;;;;;;;;3.00;2.00;;;;;22.69;31.21;101598.81;5015623;28;46565;-74
2022/09/18 11:05:48;;;;;;;;;1.33;1.33;;;;;22.39;31.46;101596.38;5014500;28;45342;-72
2022/09/18 11:08:18;;;;;;;;;4.00;3.00;;;;;20.67;31.70;101331.94;5022000;28;45387;-72
2022/09/18 11:10:59;;;;;;;;;2.67;2.67;;;;;22.15;32.08;101584.19;5019526;28;45508;-72
2022/09/18 11:13:27;;;;;;;;;1.67;1.00;;;;;21.94;31.92;101553.59;5015701;28;45656;-71
2022/09/18 11:16:05;;;;;;;;;2.00;1.00;;;;;22.25;32.03;101593.81;5009184;28;45668;-73
2022/09/18 11:18:31;;;;;;;;;4.00;3.00;;;;;22.08;32.06;101555.41;5030670;28;45269;-72
2022/09/18 11:21:01;;;;;;;;;2.33;2.33;;;;;22.01;32.00;101533.63;5016194;28;45341;-72
2022/09/18 11:23:28;;;;;;;;;2.00;2.00;;;;;22.16;31.70;101569.59;5014388;28;46803;-70
2022/09/18 11:26:18;;;;;;;;;5.00;5.00;;;;;22.15;32.28;101592.31;5029482;28;45540;-70
2022/09/18 11:29:16;;;;;;;;;4.00;4.00;;;;;21.97;32.67;101591.94;5006623;28;45443;-72
2022/09/18 11:31:48;;;;;;;;;5.00;5.00;;;;;21.85;32.47;101596.25;5017262;28;45661;-71
2022/09/18 11:34:23;;;;;;;;;2.67;2.67;;;;;21.82;32.88;101602.03;5026641;28;46516;-72
2022/09/18 11:36:52;;;;;;;;;2.00;2.00;;;;;21.16;33.01;101507.63;5016361;28;45428;-73
2022/09/18 11:39:26;;;;;;;;;4.00;3.00;;;;;21.56;33.55;101606.22;5016413;28;45405;-76
2022/09/18 11:41:53;;;;;;;;;3.00;3.00;;;;;21.52;33.36;101595.97;5031031;28;45403;-73